Time;durP1;ratioP1;P1;durP2;ratioP2;P2;SDS_P1;SDS_P2;PMS_P1;PMS_P2;Temp;Humidity;BMP_temperature;BMP_pressure;BME280_temperature;BME280_humidity;BME280_pressure;Samples;Min_cycle;Max_cycle;Signal;HPM_P1;HPM_P2
2022/01/15 00:00:59;;;;;;;34.38;22.48;;;-0.70;99.90;;;;;;5080774;27;20552;-58
2022/01/15 00:03:38;;;;;;;28.27;22.48;;;-0.70;99.90;;;;;;5082158;28;21035;-58
2022/01/15 00:06:18;;;;;;;31.15;22.70;;;-0.70;99.90;;;;;;5146678;27;20534;-58
2022/01/15 00:08:58;;;;;;;29.75;21.63;;;-0.70;99.90;;;;;;5106243;27;20588;-58
2022/01/15 00:11:38;;;;;;;30.25;22.05;;;-0.70;99.90;;;;;;5106840;27;20537;-58
2022/01/15 00:14:25;;;;;;;33.88;22.48;;;-0.60;99.90;;;;;;5086578;28;20684;-58
2022/01/15 00:17:13;;;;;;;32.25;23.45;;;-0.70;99.90;;;;;;5147827;27;20763;-59
2022/01/15 00:19:53;;;;;;;32.20;24.05;;;-0.60;99.90;;;;;;5082811;27;20596;-58
2022/01/15 00:22:33;;;;;;;32.13;22.67;;;-0.60;99.90;;;;;;5146899;27;20547;-58
2022/01/15 00:25:14;;;;;;;25.45;20.55;;;-0.60;99.90;;;;;;5068777;27;20553;-58
2022/01/15 00:27:54;;;;;;;27.23;21.00;;;-0.60;99.90;;;;;;5124562;27;20679;-57
2022/01/15 00:30:33;;;;;;;28.60;21.20;;;-0.60;99.90;;;;;;5081368;27;20580;-57
2022/01/15 00:33:12;;;;;;;28.73;22.00;;;-0.60;99.90;;;;;;5087002;27;21084;-58
2022/01/15 00:35:53;;;;;;;28.23;22.08;;;-0.60;99.90;;;;;;5080765;28;20704;-58
2022/01/15 00:38:32;;;;;;;28.83;21.42;;;-0.60;99.90;;;;;;5068210;28;20541;-58
2022/01/15 00:41:12;;;;;;;23.98;19.73;;;-0.60;99.90;;;;;;5128523;27;20664;-58
2022/01/15 00:43:52;;;;;;;26.63;20.52;;;-0.60;99.90;;;;;;5101471;27;20672;-58
2022/01/15 00:46:32;;;;;;;24.90;19.73;;;-0.60;99.90;;;;;;5126760;27;21064;-57
2022/01/15 00:49:23;;;;;;;23.45;19.75;;;-0.50;99.90;;;;;;5084997;28;20572;-58
2022/01/15 00:52:03;;;;;;;27.20;21.63;;;-0.50;99.90;;;;;;5099463;27;20558;-58
2022/01/15 00:54:43;;;;;;;25.38;20.83;;;-0.60;99.90;;;;;;5072857;28;20690;-58
2022/01/15 00:57:23;;;;;;;25.58;20.13;;;-0.50;99.90;;;;;;5084674;28;20663;-58
2022/01/15 01:00:05;;;;;;;27.90;20.33;;;-0.50;99.90;;;;;;5100875;27;20713;-58
2022/01/15 01:02:44;;;;;;;26.42;19.92;;;-0.50;99.90;;;;;;5142929;27;20669;-58
2022/01/15 01:05:24;;;;;;;26.65;19.75;;;-0.50;99.90;;;;;;5084683;27;20560;-58
2022/01/15 01:08:04;;;;;;;27.73;20.67;;;-0.50;99.90;;;;;;5105972;27;20676;-58
2022/01/15 01:10:53;;;;;;;26.55;20.17;;;-0.50;99.90;;;;;;5147637;27;21024;-58
2022/01/15 01:25:22;;;;;;;23.33;19.48;;;-0.40;99.90;;;;;;5086023;27;20548;-58
2022/01/15 01:28:08;;;;;;;25.60;19.75;;;-0.40;99.90;;;;;;5106369;27;20674;-58
2022/01/15 01:30:53;;;;;;;27.23;21.02;;;-0.40;99.90;;;;;;5126747;27;20536;-58
2022/01/15 01:33:35;;;;;;;22.98;18.70;;;-0.40;99.90;;;;;;5085936;27;20544;-58
2022/01/15 01:36:21;;;;;;;23.40;17.75;;;-0.40;99.90;;;;;;5063694;27;20978;-58
2022/01/15 01:39:06;;;;;;;23.65;19.38;;;-0.40;99.90;;;;;;5084542;28;20668;-58
2022/01/15 01:41:54;;;;;;;29.92;20.27;;;-0.50;99.90;;;;;;5106171;27;20666;-58
2022/01/15 01:44:38;;;;;;;22.10;18.95;;;-0.50;99.90;;;;;;5085982;27;20879;-57
2022/01/15 01:47:25;;;;;;;24.40;19.60;;;-0.50;99.90;;;;;;5082286;28;20699;-58
2022/01/15 01:50:05;;;;;;;26.85;19.02;;;-0.50;99.90;;;;;;5151799;27;20552;-58
2022/01/15 01:52:47;;;;;;;26.52;19.70;;;-0.50;99.90;;;;;;5085376;27;20544;-58
2022/01/15 01:55:29;;;;;;;22.45;19.38;;;-0.50;99.90;;;;;;5084927;28;20684;-58
2022/01/15 01:58:08;;;;;;;24.63;20.52;;;-0.40;99.90;;;;;;5126156;27;20671;-58
2022/01/15 02:00:48;;;;;;;23.83;18.20;;;-0.40;99.90;;;;;;5119146;27;20564;-58
2022/01/15 02:03:28;;;;;;;23.92;18.75;;;-0.50;99.90;;;;;;5124559;27;20580;-59
2022/01/15 02:06:08;;;;;;;26.15;19.77;;;-0.40;99.90;;;;;;5085197;27;20548;-58
2022/01/15 02:08:48;;;;;;;25.63;20.48;;;-0.40;99.90;;;;;;5085491;28;20543;-58
2022/01/15 02:11:40;;;;;;;23.55;18.75;;;-0.40;99.90;;;;;;5085935;28;20573;-58
2022/01/15 02:14:29;;;;;;;26.02;20.60;;;-0.40;99.90;;;;;;5126495;27;20541;-58
2022/01/15 02:17:11;;;;;;;25.05;20.35;;;-0.40;99.90;;;;;;5189093;27;20952;-58
2022/01/15 02:20:10;;;;;;;23.58;18.65;;;-0.40;99.90;;;;;;5085982;27;20547;-58
2022/01/15 02:25:49;;;;;;;21.75;18.00;;;-0.40;99.90;;;;;;5105807;27;20572;-58
2022/01/15 02:28:31;;;;;;;26.40;20.40;;;-0.40;99.90;;;;;;5085689;28;20668;-58
2022/01/15 02:31:14;;;;;;;24.88;19.83;;;-0.40;99.90;;;;;;5085165;27;20539;-58
2022/01/15 02:33:54;;;;;;;23.73;19.35;;;-0.40;99.90;;;;;;5080694;27;20555;-58
2022/01/15 02:36:36;;;;;;;25.85;19.95;;;-0.40;99.90;;;;;;5105627;27;20534;-58
2022/01/15 02:39:15;;;;;;;28.35;21.23;;;-0.30;99.90;;;;;;5105295;27;20670;-59
2022/01/15 02:41:55;;;;;;;25.40;19.13;;;-0.40;99.90;;;;;;5085447;27;20568;-58
2022/01/15 02:44:38;;;;;;;28.90;20.58;;;-0.30;99.90;;;;;;5070799;28;21309;-58
2022/01/15 02:50:15;;;;;;;23.70;19.95;;;-0.40;99.90;;;;;;5084867;28;20691;-58
2022/01/15 02:52:55;;;;;;;22.23;18.98;;;-0.50;99.90;;;;;;5084584;28;20684;-58
2022/01/15 02:55:36;;;;;;;28.40;20.55;;;-0.60;99.90;;;;;;5085329;27;20687;-58
2022/01/15 02:58:16;;;;;;;30.50;20.77;;;-0.70;99.90;;;;;;5085956;27;20544;-58
2022/01/15 03:00:55;;;;;;;24.23;19.60;;;-0.80;99.90;;;;;;5146965;27;21016;-58
2022/01/15 03:03:35;;;;;;;26.02;19.58;;;-1.00;99.90;;;;;;5092274;27;20719;-58
2022/01/15 03:06:16;;;;;;;23.73;18.95;;;-1.10;99.90;;;;;;5115713;27;20543;-57
2022/01/15 03:08:56;;;;;;;25.00;20.15;;;-1.20;99.90;;;;;;5085543;28;21023;-59
2022/01/15 03:11:36;;;;;;;27.65;18.70;;;-1.20;99.90;;;;;;5082938;28;20696;-58
2022/01/15 03:14:19;;;;;;;22.27;18.02;;;-1.20;99.90;;;;;;5123995;27;20548;-58
2022/01/15 03:16:58;;;;;;;24.88;19.70;;;-1.10;99.90;;;;;;5084637;27;20585;-58
2022/01/15 03:19:38;;;;;;;24.95;19.40;;;-1.10;99.90;;;;;;5086388;28;20656;-58
2022/01/15 03:22:18;;;;;;;25.08;19.73;;;-1.00;99.90;;;;;;5083456;28;20687;-58
2022/01/15 03:24:58;;;;;;;24.23;19.45;;;-0.90;99.90;;;;;;5084800;28;20699;-58
2022/01/15 03:27:38;;;;;;;26.65;20.00;;;-0.80;99.90;;;;;;5122399;27;20536;-58
2022/01/15 03:30:18;;;;;;;24.75;18.40;;;-0.80;99.90;;;;;;5086104;27;20535;-58
2022/01/15 03:32:57;;;;;;;22.75;18.42;;;-0.70;99.90;;;;;;5085940;28;20664;-58
2022/01/15 03:35:38;;;;;;;24.52;19.35;;;-0.70;99.90;;;;;;5135594;27;20559;-58
2022/01/15 03:38:17;;;;;;;24.15;18.38;;;-0.60;99.90;;;;;;5084537;27;20543;-57
2022/01/15 03:40:57;;;;;;;23.25;18.58;;;-0.60;99.90;;;;;;5084984;28;21205;-58
2022/01/15 03:43:37;;;;;;;26.45;18.88;;;-0.50;99.90;;;;;;5147292;27;20538;-58
2022/01/15 03:46:17;;;;;;;21.95;17.90;;;-0.50;99.90;;;;;;5085385;27;20535;-58
2022/01/15 03:48:56;;;;;;;26.27;19.20;;;-0.50;99.90;;;;;;5086034;27;20545;-59
2022/01/15 03:51:37;;;;;;;20.13;17.65;;;-0.50;99.90;;;;;;5105957;27;21079;-58
2022/01/15 03:54:16;;;;;;;23.85;18.95;;;-0.50;99.90;;;;;;5121172;27;21288;-58
2022/01/15 03:56:56;;;;;;;23.55;18.45;;;-0.50;99.90;;;;;;5106237;27;20657;-58
2022/01/15 03:59:36;;;;;;;21.73;18.60;;;-0.50;99.90;;;;;;5106455;27;20665;-58
2022/01/15 04:02:15;;;;;;;21.48;17.75;;;-0.50;99.90;;;;;;5085843;28;20543;-59
2022/01/15 04:04:55;;;;;;;23.13;18.85;;;-0.50;99.90;;;;;;5146954;27;20969;-58
2022/01/15 04:07:35;;;;;;;21.23;17.65;;;-0.50;99.90;;;;;;5147344;27;21059;-59
2022/01/15 04:10:16;;;;;;;26.50;19.50;;;-0.60;99.90;;;;;;5147624;27;20538;-58
2022/01/15 04:12:55;;;;;;;25.13;18.60;;;-0.60;99.90;;;;;;5147450;27;20678;-58
2022/01/15 04:15:35;;;;;;;21.60;18.45;;;-0.60;99.90;;;;;;5085422;27;20580;-58
2022/01/15 04:18:14;;;;;;;22.98;19.73;;;-0.60;99.90;;;;;;5126926;27;20954;-58
2022/01/15 04:20:56;;;;;;;22.77;18.75;;;-0.60;99.90;;;;;;5147847;27;20534;-58
2022/01/15 04:23:36;;;;;;;21.67;18.45;;;-0.70;99.90;;;;;;5122646;27;20548;-58
2022/01/15 04:26:17;;;;;;;21.67;18.27;;;-0.80;99.90;;;;;;5083437;27;20577;-58
2022/01/15 04:29:02;;;;;;;21.75;18.40;;;-0.80;99.90;;;;;;5084278;28;20700;-58
2022/01/15 04:31:48;;;;;;;22.77;18.83;;;-0.90;99.90;;;;;;5123755;27;20675;-58
2022/01/15 04:34:29;;;;;;;22.73;19.50;;;-0.90;99.90;;;;;;5082427;28;20696;-58
2022/01/15 04:37:13;;;;;;;23.58;19.20;;;-0.90;99.90;;;;;;5084564;27;20583;-58
2022/01/15 04:39:52;;;;;;;23.55;19.60;;;-1.00;99.90;;;;;;5084991;28;20975;-58
2022/01/15 04:42:32;;;;;;;23.83;18.58;;;-1.00;99.90;;;;;;5147228;27;21016;-59
2022/01/15 04:45:13;;;;;;;22.58;19.05;;;-1.00;99.90;;;;;;5084726;27;21104;-58
2022/01/15 04:47:52;;;;;;;23.48;19.48;;;-1.10;99.90;;;;;;5081937;28;20686;-58
2022/01/15 04:50:32;;;;;;;22.55;18.88;;;-1.10;99.90;;;;;;5069666;28;20702;-58
2022/01/15 04:53:11;;;;;;;20.30;17.85;;;-1.10;99.90;;;;;;5080172;27;20587;-58
2022/01/15 04:55:51;;;;;;;23.83;19.08;;;-1.10;99.90;;;;;;5104572;27;21293;-58
2022/01/15 04:58:31;;;;;;;24.13;18.88;;;-1.00;99.90;;;;;;5085585;27;20539;-58
2022/01/15 05:01:11;;;;;;;21.02;18.67;;;-1.00;99.90;;;;;;5147217;27;20546;-58
2022/01/15 05:03:51;;;;;;;23.58;18.65;;;-1.00;99.90;;;;;;5086174;28;20676;-58
2022/01/15 05:06:30;;;;;;;22.77;18.58;;;-0.90;99.90;;;;;;5146952;27;20534;-58
2022/01/15 05:09:11;;;;;;;23.17;19.35;;;-0.90;99.90;;;;;;5106035;27;20677;-58
2022/01/15 05:12:00;;;;;;;21.33;18.20;;;-0.80;99.90;;;;;;5146842;27;20653;-58
2022/01/15 05:14:40;;;;;;;25.17;19.38;;;-0.80;99.90;;;;;;5106271;27;20709;-58
2022/01/15 05:17:20;;;;;;;21.90;19.55;;;-0.70;99.90;;;;;;5084165;27;20570;-58
2022/01/15 05:19:59;;;;;;;22.85;18.90;;;-0.70;99.90;;;;;;5069538;27;20584;-58
2022/01/15 05:22:39;;;;;;;23.52;19.00;;;-0.70;99.90;;;;;;5082901;27;21104;-58
2022/01/15 05:25:19;;;;;;;20.67;18.23;;;-0.70;99.90;;;;;;5108827;27;20565;-58
2022/01/15 05:27:59;;;;;;;23.35;18.40;;;-0.60;99.90;;;;;;5105507;27;20693;-58
2022/01/15 05:30:39;;;;;;;22.70;19.65;;;-0.60;99.90;;;;;;5106184;27;20670;-58
2022/01/15 05:33:18;;;;;;;25.00;19.73;;;-0.60;99.90;;;;;;5085813;28;21033;-59
2022/01/15 05:35:58;;;;;;;23.30;18.85;;;-0.60;99.90;;;;;;5085767;28;20543;-58
2022/01/15 05:38:38;;;;;;;23.60;19.02;;;-0.60;99.90;;;;;;5144561;27;20685;-58
2022/01/15 05:41:18;;;;;;;23.83;18.65;;;-0.60;99.90;;;;;;5084546;28;20597;-58
2022/01/15 05:44:01;;;;;;;24.35;18.48;;;-0.60;99.90;;;;;;5131540;27;20689;-58
2022/01/15 05:46:41;;;;;;;23.35;19.38;;;-0.60;99.90;;;;;;5070631;28;20556;-58
2022/01/15 05:49:21;;;;;;;24.17;19.67;;;-0.60;99.90;;;;;;5125618;27;20589;-58
2022/01/15 05:52:00;;;;;;;22.38;18.48;;;-0.60;99.90;;;;;;5125281;27;20544;-58
2022/01/15 05:54:40;;;;;;;25.48;19.70;;;-0.60;99.90;;;;;;5085133;28;20559;-58
2022/01/15 05:57:20;;;;;;;23.58;19.95;;;-0.60;99.90;;;;;;5083772;27;20547;-58
2022/01/15 06:00:00;;;;;;;28.90;21.40;;;-0.60;99.90;;;;;;5068228;28;20671;-58
2022/01/15 06:02:40;;;;;;;24.02;18.85;;;-0.60;99.90;;;;;;5105087;27;20666;-58
2022/01/15 06:05:19;;;;;;;24.85;20.17;;;-0.60;99.90;;;;;;5085860;28;21200;-58
2022/01/15 06:07:59;;;;;;;24.77;20.08;;;-0.60;99.90;;;;;;5127209;27;20540;-58
2022/01/15 06:10:40;;;;;;;27.27;20.95;;;-0.50;99.90;;;;;;5125603;27;20555;-58
2022/01/15 06:13:21;;;;;;;28.55;21.88;;;-0.50;99.90;;;;;;5139714;27;21201;-58
2022/01/15 06:16:00;;;;;;;26.15;21.88;;;-0.50;99.90;;;;;;5080213;28;20687;-57
2022/01/15 06:18:40;;;;;;;25.38;21.23;;;-0.50;99.90;;;;;;5115304;27;20540;-57
2022/01/15 06:21:20;;;;;;;27.58;19.88;;;-0.50;99.90;;;;;;5085913;27;20551;-58
2022/01/15 06:24:00;;;;;;;26.27;21.60;;;-0.50;99.90;;;;;;5076905;28;21089;-58
2022/01/15 06:26:40;;;;;;;25.63;20.88;;;-0.50;99.90;;;;;;5094679;27;20546;-58
2022/01/15 06:29:20;;;;;;;27.40;22.65;;;-0.50;99.90;;;;;;5084568;28;20664;-58
2022/01/15 06:31:59;;;;;;;26.55;22.33;;;-0.50;99.90;;;;;;5087718;27;20675;-58
2022/01/15 06:34:40;;;;;;;28.75;22.20;;;-0.40;99.90;;;;;;5081148;27;20696;-57
2022/01/15 06:37:20;;;;;;;25.70;20.92;;;-0.40;99.90;;;;;;5081237;28;20703;-58
2022/01/15 06:39:59;;;;;;;28.77;22.30;;;-0.40;99.90;;;;;;5069451;27;21050;-58
2022/01/15 06:42:39;;;;;;;28.77;23.42;;;-0.40;99.90;;;;;;5138727;27;20654;-58
2022/01/15 06:45:19;;;;;;;28.13;23.85;;;-0.40;99.90;;;;;;5105592;27;20580;-58
2022/01/15 06:47:59;;;;;;;30.73;24.65;;;-0.40;99.90;;;;;;5122370;27;20553;-57
2022/01/15 06:50:38;;;;;;;34.65;26.35;;;-0.40;99.90;;;;;;5080632;27;20682;-58
2022/01/15 06:53:18;;;;;;;29.50;22.80;;;-0.40;99.90;;;;;;5065243;27;21032;-58
2022/01/15 06:55:58;;;;;;;30.20;24.27;;;-0.40;99.90;;;;;;5070916;28;20682;-57
2022/01/15 06:58:38;;;;;;;25.27;20.38;;;-0.30;99.90;;;;;;5071131;27;20734;-58
2022/01/15 07:01:17;;;;;;;23.30;20.58;;;-0.30;99.90;;;;;;5096024;27;20972;-58
2022/01/15 07:03:57;;;;;;;28.20;23.35;;;-0.30;99.90;;;;;;5085423;28;20703;-58
2022/01/15 07:06:37;;;;;;;28.83;23.67;;;-0.30;99.90;;;;;;5084977;27;20547;-58
2022/01/15 07:09:17;;;;;;;31.52;25.40;;;-0.30;99.90;;;;;;5085499;27;21072;-58
2022/01/15 07:11:57;;;;;;;24.83;19.92;;;-0.20;99.90;;;;;;5097865;27;20687;-58
2022/01/15 07:14:37;;;;;;;31.75;24.30;;;-0.20;99.90;;;;;;5094733;27;20672;-58
2022/01/15 07:17:16;;;;;;;25.92;19.77;;;-0.20;99.90;;;;;;5085386;28;20675;-58
2022/01/15 07:19:56;;;;;;;23.35;19.90;;;-0.20;99.90;;;;;;5118863;27;20548;-58
2022/01/15 07:22:36;;;;;;;25.20;20.02;;;-0.20;99.90;;;;;;5086108;27;21061;-58
2022/01/15 07:25:16;;;;;;;23.67;19.70;;;-0.20;99.90;;;;;;5103612;27;21135;-58
2022/01/15 07:27:56;;;;;;;21.00;18.70;;;-0.20;99.90;;;;;;5136156;27;20552;-58
2022/01/15 07:30:36;;;;;;;23.25;20.73;;;-0.10;99.90;;;;;;5100597;27;20549;-58
2022/01/15 07:33:15;;;;;;;25.58;20.40;;;-0.10;99.90;;;;;;5084161;27;20547;-58
2022/01/15 07:35:55;;;;;;;25.63;19.77;;;-0.10;99.90;;;;;;5084581;28;20664;-58
2022/01/15 07:38:36;;;;;;;33.83;29.52;;;0.00;99.90;;;;;;5084382;27;20663;-58
2022/01/15 07:41:15;;;;;;;24.40;20.67;;;0.00;99.90;;;;;;5084420;28;20696;-58
2022/01/15 07:43:55;;;;;;;26.42;22.15;;;0.00;99.90;;;;;;5083996;28;20703;-58
2022/01/15 07:46:35;;;;;;;25.52;21.20;;;0.10;99.90;;;;;;5104866;27;20569;-58
2022/01/15 07:49:14;;;;;;;26.48;20.33;;;0.10;99.90;;;;;;5070245;28;21190;-58
2022/01/15 07:51:54;;;;;;;22.92;20.30;;;0.20;99.90;;;;;;5104109;27;21487;-58
2022/01/15 07:54:34;;;;;;;22.83;19.95;;;0.20;99.90;;;;;;5075336;27;20563;-57
2022/01/15 07:57:14;;;;;;;24.17;19.33;;;0.20;99.90;;;;;;5084437;28;20675;-58
2022/01/15 07:59:54;;;;;;;30.98;22.65;;;0.30;99.90;;;;;;5146022;27;21021;-57
2022/01/15 08:02:34;;;;;;;27.25;22.13;;;0.40;99.90;;;;;;5084992;27;20543;-58
2022/01/15 08:05:14;;;;;;;24.95;19.52;;;0.50;99.90;;;;;;5131733;27;20551;-58
2022/01/15 08:07:53;;;;;;;25.10;20.88;;;0.50;99.90;;;;;;5103023;27;20698;-58
2022/01/15 08:10:33;;;;;;;24.15;20.05;;;0.60;99.90;;;;;;5083975;28;20585;-58
2022/01/15 08:13:13;;;;;;;25.58;21.58;;;0.60;99.90;;;;;;5104727;27;20545;-57
2022/01/15 08:15:53;;;;;;;35.28;29.83;;;0.60;99.90;;;;;;5146182;27;21047;-58
2022/01/15 08:18:33;;;;;;;33.78;28.48;;;0.60;99.90;;;;;;5084868;27;20543;-58
2022/01/15 08:21:12;;;;;;;32.28;25.95;;;0.70;99.90;;;;;;5084329;27;20559;-57
2022/01/15 08:23:52;;;;;;;26.80;23.92;;;0.80;99.90;;;;;;5126594;27;20863;-58
2022/01/15 08:26:32;;;;;;;28.73;22.63;;;0.80;99.90;;;;;;5106208;27;20564;-58
2022/01/15 08:29:12;;;;;;;29.00;22.20;;;0.90;99.90;;;;;;5086182;28;21205;-58
2022/01/15 08:31:51;;;;;;;23.20;20.70;;;1.00;99.90;;;;;;5168287;27;20533;-57
2022/01/15 08:34:31;;;;;;;24.92;20.67;;;1.10;99.90;;;;;;5076017;28;20674;-58
2022/01/15 08:37:11;;;;;;;24.05;19.08;;;1.20;99.90;;;;;;5085328;28;20565;-58
2022/01/15 08:39:51;;;;;;;21.65;18.40;;;1.40;99.90;;;;;;5141885;27;20699;-58
2022/01/15 08:42:31;;;;;;;21.75;18.77;;;1.50;99.90;;;;;;5126817;27;20532;-58
2022/01/15 08:45:13;;;;;;;22.83;19.48;;;1.60;99.90;;;;;;5085611;27;20563;-58
2022/01/15 08:47:52;;;;;;;22.38;18.83;;;1.70;99.90;;;;;;5082949;22;21089;-59
2022/01/15 08:50:32;;;;;;;21.02;18.48;;;1.80;99.90;;;;;;5125021;27;21099;-59
2022/01/15 08:53:13;;;;;;;20.67;17.45;;;1.90;99.90;;;;;;5144615;27;20542;-59
2022/01/15 08:55:54;;;;;;;22.55;17.75;;;2.00;99.90;;;;;;5082626;28;21048;-59
2022/01/15 08:58:33;;;;;;;18.88;16.88;;;2.10;99.90;;;;;;5084094;28;20688;-59
2022/01/15 09:01:15;;;;;;;21.10;18.63;;;2.30;99.90;;;;;;5084428;28;20671;-59
2022/01/15 09:03:55;;;;;;;19.48;16.33;;;2.40;99.90;;;;;;5104478;27;20591;-59
2022/01/15 09:06:34;;;;;;;17.98;15.90;;;2.50;99.90;;;;;;5083855;27;21049;-60
2022/01/15 09:09:14;;;;;;;18.92;15.70;;;2.50;99.90;;;;;;5124910;27;20593;-59
2022/01/15 09:11:54;;;;;;;16.75;14.95;;;2.70;99.90;;;;;;5136697;27;20540;-60
2022/01/15 09:14:34;;;;;;;17.95;15.05;;;2.80;99.90;;;;;;5135146;27;20532;-60
2022/01/15 09:17:13;;;;;;;17.83;14.80;;;2.80;99.90;;;;;;5098341;27;20911;-59
2022/01/15 09:19:53;;;;;;;20.75;17.02;;;2.80;99.90;;;;;;5123975;27;20539;-59
2022/01/15 09:22:33;;;;;;;19.20;16.58;;;3.00;99.90;;;;;;5083674;28;20667;-59
2022/01/15 09:25:13;;;;;;;17.35;15.07;;;3.00;99.90;;;;;;5081644;28;20605;-59
2022/01/15 09:30:51;;;;;;;19.13;16.40;;;3.10;99.90;;;;;;5103927;27;20530;-60
2022/01/15 09:33:30;;;;;;;19.30;16.85;;;3.20;99.90;;;;;;5083449;27;21153;-58
2022/01/15 09:36:10;;;;;;;18.58;16.67;;;3.30;99.90;;;;;;5083002;27;20679;-59
2022/01/15 09:38:50;;;;;;;18.63;15.32;;;3.40;99.90;;;;;;5146724;27;20546;-59
2022/01/15 09:41:30;;;;;;;19.45;16.27;;;3.40;99.90;;;;;;5081284;27;20552;-59
2022/01/15 09:44:10;;;;;;;21.55;18.20;;;3.40;99.90;;;;;;5080220;28;21042;-59
2022/01/15 09:46:50;;;;;;;18.65;14.65;;;3.60;99.90;;;;;;5133390;27;20605;-59
2022/01/15 09:49:29;;;;;;;18.67;16.23;;;3.70;99.90;;;;;;5085765;27;20581;-58
2022/01/15 09:52:09;;;;;;;19.42;15.82;;;3.80;99.90;;;;;;5126268;22;20665;-57
2022/01/15 09:54:50;;;;;;;18.00;16.10;;;3.90;99.90;;;;;;5102139;27;20546;-57
2022/01/15 09:57:30;;;;;;;18.70;15.63;;;4.00;99.90;;;;;;5083647;28;21045;-57
2022/01/15 10:00:15;;;;;;;19.67;16.02;;;4.10;99.90;;;;;;5082852;28;20683;-57
2022/01/15 10:02:55;;;;;;;21.40;17.40;;;4.20;99.90;;;;;;5093611;27;20693;-57
2022/01/15 10:05:34;;;;;;;18.48;15.90;;;4.10;99.90;;;;;;5106396;27;20723;-58
2022/01/15 10:08:20;;;;;;;16.67;15.00;;;4.10;99.90;;;;;;5076719;28;20733;-57
2022/01/15 10:11:01;;;;;;;18.35;16.45;;;4.20;99.90;;;;;;5129400;27;20710;-57
2022/01/15 10:13:46;;;;;;;18.80;16.38;;;4.20;99.90;;;;;;5082980;28;20672;-57
2022/01/15 10:16:25;;;;;;;20.00;16.10;;;4.30;99.90;;;;;;5122918;27;20617;-57
2022/01/15 10:19:05;;;;;;;18.00;15.88;;;4.40;99.90;;;;;;5082873;28;20670;-57
2022/01/15 10:22:04;;;;;;;20.08;17.13;;;4.40;99.90;;;;;;5083000;27;20559;-57
2022/01/15 10:24:56;;;;;;;18.80;15.52;;;4.40;99.90;;;;;;5082986;27;21060;-57
2022/01/15 10:27:38;;;;;;;16.58;14.82;;;4.30;99.90;;;;;;5083848;27;21142;-57
2022/01/15 10:30:20;;;;;;;16.38;14.25;;;4.20;99.90;;;;;;5121951;27;20585;-57
2022/01/15 10:33:01;;;;;;;17.63;15.77;;;4.10;99.90;;;;;;5079293;27;20576;-57
2022/01/15 10:35:43;;;;;;;17.35;15.40;;;3.90;99.90;;;;;;5100704;27;20557;-57
2022/01/15 10:38:23;;;;;;;17.50;15.18;;;3.90;99.90;;;;;;5080498;28;20575;-57
2022/01/15 10:41:03;;;;;;;16.33;14.60;;;3.80;99.90;;;;;;5081314;28;20684;-57
2022/01/15 10:43:43;;;;;;;17.35;15.57;;;3.70;99.90;;;;;;5145467;27;20539;-57
2022/01/15 10:46:35;;;;;;;18.77;16.88;;;3.50;99.90;;;;;;5143612;27;20701;-57
2022/01/15 10:49:25;;;;;;;19.33;16.20;;;3.10;99.90;;;;;;5064230;28;20556;-58
2022/01/15 10:52:12;;;;;;;19.15;17.08;;;2.90;99.90;;;;;;5083806;28;20695;-58
2022/01/15 10:54:58;;;;;;;15.70;14.05;;;2.70;99.90;;;;;;5083300;28;21026;-58
2022/01/15 10:57:40;;;;;;;17.63;14.15;;;2.70;99.90;;;;;;5105134;27;20654;-57
2022/01/15 11:00:21;;;;;;;17.67;15.88;;;2.80;99.90;;;;;;5146412;27;20653;-57
2022/01/15 11:03:03;;;;;;;16.60;14.63;;;3.20;99.90;;;;;;5084759;28;20676;-57
2022/01/15 11:05:46;;;;;;;12.43;11.30;;;3.70;99.90;;;;;;5103655;27;20546;-57
2022/01/15 11:08:28;;;;;;;9.80;8.90;;;4.20;99.90;;;;;;5084982;28;20675;-57
2022/01/15 11:11:09;;;;;;;8.15;7.43;;;4.70;99.90;;;;;;5083767;27;20556;-57
2022/01/15 11:13:49;;;;;;;4.32;4.03;;;5.10;99.90;;;;;;5080579;28;20707;-57
2022/01/15 11:16:29;;;;;;;3.95;3.65;;;5.40;99.90;;;;;;5082340;28;21071;-57
2022/01/15 11:19:09;;;;;;;3.40;3.10;;;5.40;99.90;;;;;;5082767;28;20715;-57
2022/01/15 11:21:49;;;;;;;10.02;9.02;;;5.50;99.90;;;;;;5073980;27;20573;-57
2022/01/15 11:24:28;;;;;;;5.43;4.97;;;5.70;99.90;;;;;;5098475;27;20559;-57
2022/01/15 11:27:10;;;;;;;2.90;2.50;;;5.70;99.90;;;;;;5080026;28;21080;-57
2022/01/15 11:29:50;;;;;;;3.40;3.10;;;5.80;99.90;;;;;;5083263;28;20543;-57
2022/01/15 11:32:30;;;;;;;2.53;2.33;;;6.00;99.90;;;;;;5084539;27;21263;-57
2022/01/15 11:35:10;;;;;;;2.80;2.60;;;5.90;99.90;;;;;;5144566;27;20910;-57
2022/01/15 11:37:52;;;;;;;3.33;3.00;;;5.90;99.90;;;;;;5083112;27;20539;-57
2022/01/15 11:40:46;;;;;;;3.35;3.00;;;5.70;99.90;;;;;;5130915;27;20590;-57
2022/01/15 11:43:52;;;;;;;3.35;3.05;;;5.60;99.90;;;;;;5083085;27;20930;-57
2022/01/15 11:46:34;;;;;;;3.03;2.83;;;5.50;99.90;;;;;;5083466;28;20539;-57
2022/01/15 11:49:39;;;;;;;3.22;2.95;;;5.50;99.90;;;;;;5097845;27;20557;-57
2022/01/15 11:52:43;;;;;;;3.60;3.30;;;5.50;99.90;;;;;;5082933;27;21099;-57
2022/01/15 11:55:27;;;;;;;3.30;3.00;;;5.40;99.90;;;;;;5137327;27;20671;-57
2022/01/15 11:58:13;;;;;;;4.53;4.18;;;5.50;99.90;;;;;;5145729;27;20656;-57
2022/01/15 12:00:53;;;;;;;4.35;4.00;;;5.60;99.90;;;;;;5145902;27;20649;-57
2022/01/15 12:03:40;;;;;;;4.20;3.80;;;5.70;99.90;;;;;;5084685;27;20676;-57
2022/01/15 12:06:19;;;;;;;2.67;2.47;;;5.80;99.90;;;;;;5083834;28;20672;-57
2022/01/15 12:09:31;;;;;;;5.00;2.25;;;5.90;99.90;;;;;;5146192;27;20538;-57
2022/01/15 12:12:42;;;;;;;2.78;2.58;;;6.10;99.90;;;;;;5105001;27;21046;-57
2022/01/15 12:15:28;;;;;;;3.03;2.67;;;6.40;99.90;;;;;;5083141;28;20616;-57
2022/01/15 12:18:17;;;;;;;2.15;2.03;;;6.30;99.90;;;;;;5084656;27;20875;-57
2022/01/15 12:20:59;;;;;;;2.63;2.42;;;6.30;99.90;;;;;;5142985;27;20587;-57
2022/01/15 12:23:38;;;;;;;6.70;2.90;;;6.20;99.90;;;;;;5083653;27;20578;-57
2022/01/15 12:26:18;;;;;;;5.50;5.00;;;6.20;99.90;;;;;;5138873;27;20677;-57
2022/01/15 12:28:58;;;;;;;9.82;6.68;;;6.10;99.90;;;;;;5083458;28;20672;-57
2022/01/15 12:31:49;;;;;;;6.45;5.60;;;5.90;99.90;;;;;;5084753;27;20551;-57
2022/01/15 12:34:29;;;;;;;5.28;4.80;;;5.90;99.90;;;;;;5083512;27;20539;-57
2022/01/15 12:37:15;;;;;;;5.78;5.28;;;6.00;99.90;;;;;;5105129;27;20533;-57
2022/01/15 12:39:53;;;;;;;6.57;5.97;;;6.10;99.90;;;;;;5068323;22;20596;-58
2022/01/15 12:42:34;;;;;;;6.38;5.78;;;6.30;99.90;;;;;;5083161;28;20574;-58
2022/01/15 12:45:19;;;;;;;8.05;7.10;;;6.20;99.90;;;;;;5077226;27;20574;-59
2022/01/15 12:47:58;;;;;;;7.28;6.57;;;6.00;99.90;;;;;;5127042;27;20632;-59
2022/01/15 12:50:45;;;;;;;6.68;6.07;;;5.90;99.90;;;;;;5099759;27;20557;-59
2022/01/15 12:53:28;;;;;;;6.65;6.05;;;5.80;99.90;;;;;;5144749;27;20534;-59
2022/01/15 12:56:09;;;;;;;6.72;6.13;;;5.60;99.90;;;;;;5082446;28;20672;-59
2022/01/15 12:58:52;;;;;;;7.65;5.75;;;5.30;99.90;;;;;;5062782;27;20701;-59
2022/01/15 13:01:31;;;;;;;2.92;2.60;;;5.00;99.90;;;;;;5102990;27;20952;-59
2022/01/15 13:04:14;;;;;;;3.38;2.50;;;4.60;99.90;;;;;;5098942;27;20622;-59
2022/01/15 13:07:00;;;;;;;2.80;2.60;;;4.20;99.90;;;;;;5102577;27;20670;-59
2022/01/15 13:09:42;;;;;;;3.60;3.30;;;3.70;99.90;;;;;;5085369;27;20543;-59
2022/01/15 13:12:22;;;;;;;7.03;6.03;;;3.40;99.90;;;;;;5078103;27;20555;-59
2022/01/15 13:15:01;;;;;;;4.22;2.53;;;3.20;99.90;;;;;;5080647;28;21030;-59
2022/01/15 13:17:44;;;;;;;3.40;2.83;;;3.00;99.90;;;;;;5120026;27;20671;-59
2022/01/15 13:20:35;;;;;;;3.65;3.35;;;2.90;99.90;;;;;;5132454;27;20667;-59
2022/01/15 13:23:14;;;;;;;3.90;3.55;;;2.90;99.90;;;;;;5144101;27;20676;-59
2022/01/15 13:25:54;;;;;;;6.38;3.05;;;2.90;99.90;;;;;;5137565;27;20681;-59
2022/01/15 13:28:35;;;;;;;4.60;3.47;;;2.80;99.90;;;;;;5056435;27;21099;-59
2022/01/15 13:31:15;;;;;;;3.10;2.90;;;2.90;99.90;;;;;;5082350;28;20668;-59
2022/01/15 13:33:55;;;;;;;4.38;2.90;;;2.80;99.90;;;;;;5082937;28;20672;-59
2022/01/15 13:36:35;;;;;;;3.60;3.28;;;2.80;99.90;;;;;;5079072;27;20555;-59
2022/01/15 13:39:17;;;;;;;3.13;2.92;;;2.70;99.90;;;;;;5119968;27;21283;-59
2022/01/15 13:41:56;;;;;;;3.15;2.75;;;2.70;99.90;;;;;;5135519;27;20739;-59
2022/01/15 13:48:28;;;;;;;2.92;2.72;;;2.50;99.90;;;;;;5066244;27;1275154;-59
2022/01/15 13:54:11;;;;;;;3.10;2.80;;;2.40;99.90;;;;;;5145780;27;20546;-59
2022/01/15 13:56:52;;;;;;;3.20;2.90;;;2.30;99.90;;;;;;5098581;27;20585;-58
2022/01/15 13:59:33;;;;;;;3.15;2.85;;;2.30;99.90;;;;;;5113004;27;20552;-59
2022/01/15 14:02:14;;;;;;;3.80;3.50;;;2.20;99.90;;;;;;5100709;27;20550;-59
2022/01/15 14:05:13;;;;;;;3.67;3.38;;;2.20;99.90;;;;;;5075615;28;20719;-59
2022/01/15 14:07:53;;;;;;;3.80;3.50;;;2.20;99.90;;;;;;5099463;27;20565;-61
2022/01/15 14:10:32;;;;;;;3.80;3.50;;;2.10;99.90;;;;;;5078984;28;20664;-59
2022/01/15 14:13:13;;;;;;;5.28;4.22;;;2.10;99.90;;;;;;5130833;27;20769;-59
2022/01/15 14:15:54;;;;;;;6.68;4.03;;;2.10;99.90;;;;;;5119191;27;20540;-59